createdAt,value
2024-03-28T00:02:16.634Z,72.22
2024-03-28T00:04:43.367Z,72.24
2024-03-28T00:07:09.979Z,72.21
2024-03-28T00:09:36.720Z,72.25
2024-03-28T00:12:03.348Z,72.21
2024-03-28T00:14:30.072Z,72.14
2024-03-28T00:16:56.639Z,72.12
2024-03-28T00:19:30.352Z,72.24
2024-03-28T00:22:00.228Z,72.14
2024-03-28T00:24:27.069Z,72.06
2024-03-28T00:26:53.688Z,72.07
2024-03-28T00:29:20.277Z,72.02
2024-03-28T00:31:47.062Z,71.96
2024-03-28T00:34:13.697Z,71.84
2024-03-28T00:36:40.729Z,71.96
2024-03-28T00:39:09.308Z,71.77
2024-03-28T00:41:35.752Z,71.87
2024-03-28T00:44:02.334Z,71.75
2024-03-28T00:46:28.944Z,71.79
2024-03-28T00:48:55.726Z,71.85
2024-03-28T00:51:22.477Z,71.80
2024-03-28T00:53:49.129Z,71.86
2024-03-28T00:56:15.776Z,71.93
2024-03-28T00:58:42.281Z,72.06
2024-03-28T01:01:08.832Z,72.08
2024-03-28T01:03:35.577Z,72.06
2024-03-28T01:06:02.761Z,72.07
2024-03-28T01:08:30.017Z,72.06
2024-03-28T01:10:56.816Z,72.06
2024-03-28T01:13:23.385Z,72.13
2024-03-28T01:15:50.119Z,72.06
2024-03-28T01:18:16.662Z,72.07
2024-03-28T01:20:43.192Z,72.19
2024-03-28T01:23:09.987Z,72.17
2024-03-28T01:25:36.623Z,72.26
2024-03-28T01:28:03.649Z,72.32
2024-03-28T01:30:30.405Z,72.33
2024-03-28T01:32:57.024Z,72.32
2024-03-28T01:35:23.657Z,72.38
2024-03-28T01:37:50.233Z,72.43
2024-03-28T01:40:16.903Z,72.42
2024-03-28T01:42:43.519Z,72.52
2024-03-28T01:45:10.674Z,72.55
2024-03-28T01:50:09.148Z,72.58
2024-03-28T01:52:35.887Z,72.60
2024-03-28T01:55:02.842Z,72.63
2024-03-28T01:57:29.637Z,72.55
2024-03-28T01:59:56.660Z,72.71
2024-03-28T02:02:23.234Z,72.80
2024-03-28T02:04:50.014Z,72.79
2024-03-28T02:07:16.671Z,72.76
2024-03-28T02:09:43.283Z,72.74
2024-03-28T02:12:12.760Z,72.82
2024-03-28T02:14:40.514Z,73.02
2024-03-28T02:17:07.051Z,72.97
2024-03-28T02:19:35.003Z,73.01
2024-03-28T02:22:02.255Z,72.90
2024-03-28T02:24:29.812Z,72.86
2024-03-28T02:26:56.511Z,72.85
2024-03-28T02:29:23.596Z,72.93
2024-03-28T02:31:50.221Z,72.88
2024-03-28T02:34:16.794Z,72.82
2024-03-28T02:36:43.307Z,72.72
2024-03-28T02:39:11.147Z,72.72
2024-03-28T02:41:37.695Z,72.59
2024-03-28T02:44:04.452Z,72.43
2024-03-28T02:46:31.370Z,72.43
2024-03-28T02:48:58.219Z,72.30
2024-03-28T02:51:24.989Z,72.16
2024-03-28T02:53:51.482Z,71.98
2024-03-28T02:56:18.069Z,71.93
2024-03-28T02:58:44.788Z,71.88
2024-03-28T03:01:11.319Z,71.77
2024-03-28T03:03:38.088Z,71.61
2024-03-28T03:06:04.702Z,71.47
2024-03-28T03:08:31.625Z,71.31
2024-03-28T03:10:58.378Z,71.08
2024-03-28T03:13:24.901Z,70.90
2024-03-28T03:15:52.782Z,70.78
2024-03-28T03:18:26.408Z,70.69
2024-03-28T03:21:01.343Z,70.57
2024-03-28T03:23:36.251Z,70.47
2024-03-28T03:26:12.388Z,70.35
2024-03-28T03:28:58.487Z,70.19
2024-03-28T03:31:48.523Z,70.15
2024-03-28T03:34:33.845Z,70.07
2024-03-28T03:37:00.517Z,70.03
2024-03-28T03:39:28.590Z,69.94
2024-03-28T03:41:56.377Z,69.97
2024-03-28T03:44:23.069Z,69.87
2024-03-28T03:46:49.657Z,69.83
2024-03-28T03:49:16.875Z,69.78
2024-03-28T03:51:43.497Z,69.72
2024-03-28T03:54:10.251Z,69.65
2024-03-28T03:56:36.994Z,69.62
2024-03-28T03:59:03.759Z,69.63
2024-03-28T04:01:30.576Z,69.46
2024-03-28T04:03:57.082Z,69.55
2024-03-28T04:06:23.675Z,69.60
2024-03-28T04:08:50.942Z,69.60
2024-03-28T04:11:17.745Z,69.60
2024-03-28T04:13:44.492Z,69.66
2024-03-28T04:16:11.078Z,69.75
2024-03-28T04:18:37.792Z,69.64
2024-03-28T04:21:04.636Z,69.67
2024-03-28T04:23:31.301Z,69.66
2024-03-28T04:25:58.657Z,69.68
2024-03-28T04:28:25.385Z,69.57
2024-03-28T04:30:52.168Z,69.53
2024-03-28T04:33:19.027Z,69.44
2024-03-28T04:35:49.214Z,69.38
2024-03-28T04:38:16.286Z,69.25
2024-03-28T04:40:42.873Z,69.07
2024-03-28T04:43:11.291Z,68.84
2024-03-28T04:45:38.008Z,68.65
2024-03-28T04:48:05.432Z,68.36
2024-03-28T04:50:32.174Z,68.13
2024-03-28T04:52:59.778Z,67.80
2024-03-28T04:55:27.860Z,67.54
2024-03-28T04:57:54.520Z,67.27
2024-03-28T05:00:21.224Z,67.10
2024-03-28T05:02:48.090Z,66.75
2024-03-28T05:05:14.805Z,66.60
2024-03-28T05:07:41.414Z,66.17
2024-03-28T05:10:09.449Z,65.89
2024-03-28T05:12:36.089Z,65.58
2024-03-28T05:15:03.015Z,65.26
2024-03-28T05:17:29.962Z,64.96
2024-03-28T05:19:56.610Z,64.81
2024-03-28T05:22:25.735Z,64.74
2024-03-28T05:24:52.281Z,64.48
2024-03-28T05:27:18.981Z,64.33
2024-03-28T05:29:45.652Z,64.21
2024-03-28T05:32:12.324Z,64.17
2024-03-28T05:34:38.930Z,64.04
2024-03-28T05:37:05.527Z,63.80
2024-03-28T05:39:32.786Z,63.61
2024-03-28T05:41:59.438Z,63.32
2024-03-28T05:44:26.214Z,63.24
2024-03-28T05:46:53.029Z,63.04
2024-03-28T05:49:19.750Z,62.87
2024-03-28T05:51:46.659Z,62.86
2024-03-28T05:54:13.246Z,62.83
2024-03-28T05:56:42.564Z,62.79
2024-03-28T05:59:09.274Z,62.71
2024-03-28T06:01:35.902Z,62.53
2024-03-28T06:04:03.696Z,62.25
2024-03-28T06:06:30.527Z,61.98
2024-03-28T06:08:57.089Z,61.74
2024-03-28T06:11:24.080Z,61.69
2024-03-28T06:13:54.824Z,61.59
2024-03-28T06:16:22.890Z,61.52
2024-03-28T06:18:49.892Z,61.35
2024-03-28T06:21:16.370Z,61.19
2024-03-28T06:23:43.166Z,61.07
2024-03-28T06:26:09.732Z,60.65
2024-03-28T06:28:36.905Z,60.41
2024-03-28T06:31:04.699Z,60.24
2024-03-28T06:33:31.382Z,59.90
2024-03-28T06:35:57.998Z,59.88
2024-03-28T06:38:24.734Z,59.74
2024-03-28T06:41:01.453Z,59.56
2024-03-28T06:43:28.310Z,59.25
2024-03-28T06:45:55.010Z,58.98
2024-03-28T06:48:21.732Z,59.01
2024-03-28T06:50:48.283Z,58.75
2024-03-28T06:53:15.115Z,58.77
2024-03-28T06:55:42.168Z,58.74
2024-03-28T06:58:08.801Z,58.55
2024-03-28T07:00:35.441Z,58.39
2024-03-28T07:03:02.442Z,58.15
2024-03-28T07:05:29.374Z,58.19
2024-03-28T07:07:56.109Z,57.95
2024-03-28T07:10:22.945Z,57.69
2024-03-28T07:12:49.914Z,57.54
2024-03-28T07:15:16.771Z,57.43
2024-03-28T07:17:43.596Z,57.45
2024-03-28T07:20:10.777Z,57.50
2024-03-28T07:22:37.923Z,57.55
2024-03-28T07:25:05.361Z,57.58
2024-03-28T07:27:32.595Z,57.53
2024-03-28T07:29:59.534Z,57.32
2024-03-28T07:32:26.283Z,57.16
2024-03-28T07:34:52.947Z,56.82
2024-03-28T07:37:19.606Z,56.89
2024-03-28T07:39:46.390Z,56.90
2024-03-28T07:42:13.074Z,56.61
2024-03-28T07:44:40.106Z,56.32
2024-03-28T07:47:06.927Z,56.26
2024-03-28T07:49:33.892Z,56.16
2024-03-28T07:52:02.558Z,55.88
2024-03-28T07:54:33.284Z,55.50
2024-03-28T07:57:01.533Z,55.04
2024-03-28T07:59:28.222Z,54.90
2024-03-28T08:01:55.073Z,54.61
2024-03-28T08:04:23.047Z,54.12
2024-03-28T08:06:49.698Z,53.73
2024-03-28T08:09:16.348Z,53.51
2024-03-28T08:11:43.927Z,53.25
2024-03-28T08:14:12.370Z,53.16
2024-03-28T08:16:39.657Z,52.71
2024-03-28T08:19:07.369Z,52.21
2024-03-28T08:21:34.113Z,52.23
2024-03-28T08:24:00.874Z,51.63
2024-03-28T08:26:27.695Z,51.28
2024-03-28T08:28:54.983Z,51.16
2024-03-28T08:31:21.677Z,51.15
2024-03-28T08:33:48.377Z,51.29
2024-03-28T08:36:16.134Z,51.28
2024-03-28T08:38:43.182Z,51.16
2024-03-28T08:41:10.028Z,50.76
2024-03-28T08:43:37.089Z,50.72
2024-03-28T08:46:04.413Z,50.66
2024-03-28T08:48:31.971Z,50.84
2024-03-28T08:50:59.830Z,50.95
2024-03-28T08:53:29.782Z,50.81
2024-03-28T08:55:59.728Z,50.91
2024-03-28T08:58:33.860Z,51.13
2024-03-28T09:01:02.665Z,51.20
2024-03-28T09:03:37.512Z,51.44
2024-03-28T09:06:12.417Z,51.43
2024-03-28T09:08:41.848Z,51.35
2024-03-28T09:11:13.130Z,51.41
2024-03-28T09:13:42.224Z,51.46
2024-03-28T09:16:09.407Z,51.35
2024-03-28T09:18:36.264Z,51.41
2024-03-28T09:21:08.942Z,51.32
2024-03-28T09:23:35.920Z,51.40
2024-03-28T09:26:02.861Z,51.29
2024-03-28T09:28:31.254Z,50.77
2024-03-28T09:31:00.229Z,50.76
2024-03-28T09:33:28.054Z,50.67
2024-03-28T09:35:55.127Z,50.79
2024-03-28T09:38:22.720Z,50.50
2024-03-28T09:40:52.836Z,50.38
2024-03-28T09:43:19.579Z,50.01
2024-03-28T09:45:46.587Z,49.81
2024-03-28T09:48:17.344Z,49.82
2024-03-28T09:50:44.070Z,49.58
2024-03-28T09:53:11.488Z,49.32
2024-03-28T09:55:38.349Z,49.44
2024-03-28T09:58:05.483Z,49.65
2024-03-28T10:00:33.256Z,49.54
2024-03-28T10:03:02.792Z,49.42
2024-03-28T10:05:29.871Z,49.43
2024-03-28T10:07:56.616Z,49.41
2024-03-28T10:10:23.373Z,48.94
2024-03-28T10:12:56.185Z,49.22
2024-03-28T10:15:22.963Z,49.04
2024-03-28T10:18:07.835Z,48.91
2024-03-28T10:20:37.557Z,48.78
2024-03-28T10:23:06.162Z,48.78
2024-03-28T10:25:34.594Z,48.94
2024-03-28T10:28:01.382Z,48.73
2024-03-28T10:30:28.420Z,48.69
2024-03-28T10:33:09.117Z,48.38
2024-03-28T10:35:42.456Z,48.15
2024-03-28T10:38:15.863Z,48.01
2024-03-28T10:40:43.839Z,48.17
2024-03-28T10:43:10.534Z,48.32
2024-03-28T10:45:42.081Z,48.19
2024-03-28T10:48:30.310Z,48.13
2024-03-28T10:51:17.361Z,47.99
2024-03-28T10:53:47.040Z,48.26
2024-03-28T10:56:13.777Z,48.15
2024-03-28T10:58:40.908Z,48.24
2024-03-28T11:01:11.747Z,48.05
2024-03-28T11:03:41.735Z,47.59
2024-03-28T11:06:08.582Z,47.93
2024-03-28T11:08:35.601Z,47.80
2024-03-28T11:11:02.758Z,47.85
2024-03-28T11:13:29.964Z,47.60
2024-03-28T11:16:16.271Z,47.38
2024-03-28T11:18:46.093Z,47.17
2024-03-28T11:21:13.090Z,47.38
2024-03-28T11:23:46.659Z,46.77
2024-03-28T11:26:20.472Z,46.50
2024-03-28T11:28:47.302Z,46.33
2024-03-28T11:31:24.702Z,46.16
2024-03-28T11:34:02.067Z,45.38
2024-03-28T11:36:33.327Z,45.39
2024-03-28T11:39:00.316Z,44.99
2024-03-28T11:41:27.714Z,45.04
2024-03-28T11:43:54.750Z,44.66
2024-03-28T11:46:27.098Z,44.88
2024-03-28T11:48:57.499Z,45.16
2024-03-28T11:51:24.432Z,45.17
2024-03-28T11:53:57.285Z,45.08
2024-03-28T11:56:31.893Z,44.74
2024-03-28T11:58:59.743Z,44.78
2024-03-28T12:01:26.470Z,44.46
2024-03-28T12:03:55.162Z,44.21
2024-03-28T12:06:22.321Z,43.84
2024-03-28T12:08:49.977Z,43.74
2024-03-28T12:11:18.717Z,43.43
2024-03-28T12:13:48.934Z,43.88
2024-03-28T12:16:15.687Z,43.50
2024-03-28T12:18:42.907Z,43.49
2024-03-28T12:21:11.912Z,43.91
2024-03-28T12:23:38.999Z,43.45
2024-03-28T12:26:06.810Z,43.32
2024-03-28T12:28:39.471Z,43.63
2024-03-28T12:31:06.291Z,43.16
2024-03-28T12:33:35.735Z,43.08
2024-03-28T12:36:03.393Z,43.37
2024-03-28T12:38:30.564Z,42.90
2024-03-28T12:40:57.630Z,42.77
2024-03-28T12:43:25.244Z,42.82
2024-03-28T12:46:05.634Z,42.36
2024-03-28T12:48:34.233Z,42.75
2024-03-28T12:51:03.542Z,43.07
2024-03-28T12:53:30.868Z,43.16
2024-03-28T12:55:57.586Z,43.42
2024-03-28T12:58:26.715Z,43.75
2024-03-28T13:00:53.468Z,43.57
2024-03-28T13:03:20.262Z,43.69
2024-03-28T13:05:54.030Z,43.60
2024-03-28T13:08:21.663Z,43.55
2024-03-28T13:10:48.479Z,43.25
2024-03-28T13:13:15.397Z,43.24
2024-03-28T13:15:42.087Z,43.23
2024-03-28T13:18:08.882Z,43.14
2024-03-28T13:20:38.346Z,43.34
2024-03-28T13:23:05.236Z,43.84
2024-03-28T13:25:32.660Z,44.20
2024-03-28T13:28:01.408Z,44.65
2024-03-28T13:30:28.339Z,44.99
2024-03-28T13:32:55.566Z,45.36
2024-03-28T13:35:22.421Z,45.60
2024-03-28T13:37:49.164Z,45.83
2024-03-28T13:40:16.063Z,46.20
2024-03-28T13:42:43.304Z,46.42
2024-03-28T13:45:13.029Z,46.42
2024-03-28T13:47:40.785Z,46.42
2024-03-28T13:50:08.006Z,46.62
2024-03-28T13:52:34.920Z,46.89
2024-03-28T13:55:01.806Z,47.11
2024-03-28T13:57:29.424Z,47.08
2024-03-28T13:59:56.170Z,47.15
2024-03-28T14:02:23.908Z,47.26
2024-03-28T14:04:50.568Z,47.33
2024-03-28T14:07:17.259Z,47.17
2024-03-28T14:09:45.576Z,47.07
2024-03-28T14:12:14.039Z,46.83
2024-03-28T14:14:40.791Z,46.85
2024-03-28T14:17:07.781Z,47.00
2024-03-28T14:19:34.605Z,46.94
2024-03-28T14:22:01.475Z,46.61
2024-03-28T14:24:29.623Z,46.40
2024-03-28T14:26:56.345Z,46.47
2024-03-28T14:29:23.063Z,46.37
2024-03-28T14:31:49.850Z,46.32
2024-03-28T14:34:17.550Z,46.56
2024-03-28T14:36:44.424Z,46.80
2024-03-28T14:39:11.165Z,46.91
2024-03-28T14:41:37.933Z,46.96
2024-03-28T14:44:04.900Z,46.99
2024-03-28T14:46:31.951Z,47.19
2024-03-28T14:48:58.832Z,47.10
2024-03-28T14:51:25.589Z,46.98
2024-03-28T14:53:54.608Z,47.13
2024-03-28T14:56:21.569Z,47.37
2024-03-28T14:58:48.276Z,47.52
2024-03-28T15:01:15.485Z,47.77
2024-03-28T15:03:42.638Z,47.95
2024-03-28T15:06:12.508Z,48.10
2024-03-28T15:08:43.420Z,48.18
2024-03-28T15:11:12.339Z,48.07
2024-03-28T15:13:40.404Z,48.07
2024-03-28T15:16:07.233Z,48.20
2024-03-28T15:18:34.645Z,48.28
2024-03-28T15:21:01.302Z,48.24
2024-03-28T15:23:28.644Z,48.35
2024-03-28T15:25:57.215Z,48.55
2024-03-28T15:28:23.946Z,48.67
2024-03-28T15:30:51.171Z,48.81
2024-03-28T15:33:18.334Z,48.76
2024-03-28T15:35:48.509Z,48.85
2024-03-28T15:38:15.300Z,49.04
2024-03-28T15:40:42.083Z,49.05
2024-03-28T15:43:08.839Z,49.33
2024-03-28T15:45:35.872Z,49.57
2024-03-28T15:48:03.164Z,49.67
2024-03-28T15:50:33.833Z,49.90
2024-03-28T15:53:00.638Z,50.12
2024-03-28T15:55:27.407Z,50.13
2024-03-28T15:57:54.406Z,50.24
2024-03-28T16:00:21.215Z,50.34
2024-03-28T16:02:48.084Z,50.46
2024-03-28T16:05:17.798Z,50.49
2024-03-28T16:07:44.530Z,50.56
2024-03-28T16:10:12.845Z,50.66
2024-03-28T16:12:40.902Z,50.81
2024-03-28T16:15:08.750Z,50.86
2024-03-28T16:17:35.569Z,50.86
2024-03-28T16:20:03.793Z,51.03
2024-03-28T16:22:31.027Z,51.14
2024-03-28T16:24:57.872Z,51.12
2024-03-28T16:27:24.923Z,51.14
2024-03-28T16:29:51.628Z,51.25
2024-03-28T16:32:19.512Z,51.22
2024-03-28T16:34:46.657Z,51.36
2024-03-28T16:37:13.336Z,51.31
2024-03-28T16:39:40.027Z,51.31
2024-03-28T16:42:06.681Z,51.23
2024-03-28T16:44:33.874Z,51.29
2024-03-28T16:47:00.717Z,51.26
2024-03-28T16:49:27.371Z,51.26
2024-03-28T16:51:55.618Z,51.26
2024-03-28T16:54:22.389Z,51.36
2024-03-28T16:56:49.055Z,51.49
2024-03-28T16:59:15.962Z,51.62
2024-03-28T17:01:42.798Z,51.74
2024-03-28T17:04:09.824Z,51.85
2024-03-28T17:06:36.616Z,52.07
2024-03-28T17:09:03.585Z,52.19
2024-03-28T17:11:30.442Z,52.35
2024-03-28T17:13:57.921Z,52.43
2024-03-28T17:16:25.780Z,52.56
2024-03-28T17:18:52.518Z,52.64
2024-03-28T17:21:20.965Z,52.85
2024-03-28T17:23:47.923Z,53.01
2024-03-28T17:26:14.736Z,53.00
2024-03-28T17:28:41.893Z,53.09
2024-03-28T17:31:13.129Z,53.20
2024-03-28T17:33:41.064Z,53.32
2024-03-28T17:36:07.811Z,53.42
2024-03-28T17:38:35.298Z,53.52
2024-03-28T17:41:05.676Z,53.73
2024-03-28T17:43:32.699Z,53.72
2024-03-28T17:46:02.148Z,53.85
2024-03-28T17:48:29.179Z,53.96
2024-03-28T17:50:55.941Z,54.04
2024-03-28T17:53:23.107Z,54.04
2024-03-28T17:55:49.879Z,54.28
2024-03-28T17:58:16.757Z,54.36
2024-03-28T18:00:44.985Z,54.46
2024-03-28T18:03:11.648Z,54.70
2024-03-28T18:05:40.827Z,54.61
2024-03-28T18:08:09.021Z,54.70
2024-03-28T18:10:36.193Z,54.49
2024-03-28T18:13:03.215Z,54.29
2024-03-28T18:15:30.163Z,53.65
2024-03-28T18:17:56.962Z,53.27
2024-03-28T18:20:23.839Z,52.73
2024-03-28T18:22:51.650Z,52.41
2024-03-28T18:25:18.498Z,52.02
2024-03-28T18:27:45.354Z,52.00
2024-03-28T18:30:12.156Z,52.10
2024-03-28T18:32:39.059Z,52.53
2024-03-28T18:35:05.887Z,52.97
2024-03-28T18:37:32.875Z,53.21
2024-03-28T18:39:59.651Z,53.61
2024-03-28T18:42:26.344Z,53.82
2024-03-28T18:44:53.287Z,54.09
2024-03-28T18:47:20.103Z,54.59
2024-03-28T18:49:47.161Z,54.91
2024-03-28T18:52:13.986Z,55.14
2024-03-28T18:54:40.955Z,55.50
2024-03-28T18:57:09.437Z,55.84
2024-03-28T18:59:36.231Z,56.22
2024-03-28T19:02:02.980Z,56.55
2024-03-28T19:04:30.707Z,56.85
2024-03-28T19:06:58.360Z,57.12
2024-03-28T19:09:25.079Z,57.60
2024-03-28T19:11:51.891Z,57.92
